Bookmark and Share
Track history (hours):
 

Stornoway

More information available from US FCC via Universal Licensing System and Coast Guard Vessel Documentation Center.

Last reported at 2014-Mar-20 16:31 UTC. Time now 2014-Apr-18 16:08 UTC.
Position N 47°42' W 122°32'.
Warning: this ship's position is 28 days out of date.

Length 13 m.

Type: Pleasure craft. MMSI: 367078810.

NotesDate/timePositionNaut miles runAvg speedWind from/ knotsBaromVisibWave heightAir tempDewpointWater temp
2014-Mar-20 16:31N 47°42' W 122°32'5 5.4
2014-Mar-20 15:33N 47°41' W 122°24'0 0.0
2014-Mar-20 14:33N 47°41' W 122°24'0 0.0
2014-Mar-20 13:33N 47°41' W 122°24'0 0.0
2014-Mar-20 12:33N 47°41' W 122°24'0 0.0
2014-Mar-20 11:33N 47°41' W 122°24'0 0.0
2014-Mar-20 10:33N 47°41' W 122°24'0 0.0
2014-Mar-20 09:33N 47°41' W 122°24'0 0.0
2014-Mar-20 08:33N 47°41' W 122°24'0 0.0
2014-Mar-20 07:33N 47°41' W 122°24'0 0.0
2014-Mar-20 06:33N 47°41' W 122°24'0 0.0
2014-Mar-20 05:33N 47°41' W 122°24'0 0.0
2014-Mar-20 04:33N 47°41' W 122°24'0 0.0
2014-Mar-20 03:33N 47°41' W 122°24'0 0.0
2014-Mar-20 02:30N 47°41' W 122°24'0 0.0
2014-Mar-20 01:33N 47°41' W 122°24'0 0.0
2014-Mar-20 00:33N 47°41' W 122°24'0 0.0
2014-Mar-19 23:33N 47°41' W 122°24'0 0.0
2014-Mar-19 22:30N 47°41' W 122°24'0 0.0
2014-Mar-19 21:33N 47°41' W 122°24'0 0.0
2014-Mar-19 20:33N 47°41' W 122°24'0 0.0
2014-Mar-19 19:34N 47°41' W 122°24'0 0.0
2014-Mar-19 18:34N 47°41' W 122°24'0 0.0
2014-Mar-19 17:34N 47°41' W 122°24'0 0.0
2014-Mar-19 16:31N 47°41' W 122°24'0 0.0
2014-Mar-19 15:31N 47°41' W 122°24'0 0.0
2014-Mar-19 14:31N 47°41' W 122°24'0 0.0
2014-Mar-19 13:31N 47°41' W 122°24'0 0.0
2014-Mar-19 12:31N 47°41' W 122°24'0 0.0
2014-Mar-19 11:31N 47°41' W 122°24'0 0.0
2014-Mar-19 10:31N 47°41' W 122°24'0 0.0
2014-Mar-19 09:28N 47°41' W 122°24'0 0.0
2014-Mar-19 08:31N 47°41' W 122°24'0 0.0
2014-Mar-19 07:31N 47°41' W 122°24'0 0.0
2014-Mar-19 06:31N 47°41' W 122°24'0 0.0
2014-Mar-19 05:28N 47°41' W 122°24'0 0.0
2014-Mar-19 04:31N 47°41' W 122°24'0 0.0
2014-Mar-19 03:31N 47°41' W 122°24'0 0.0
2014-Mar-19 02:31N 47°41' W 122°24'0 0.0
2014-Mar-19 01:31N 47°41' W 122°24'0 0.0
2014-Mar-19 00:31N 47°41' W 122°24'0 0.0
2014-Mar-18 23:31N 47°41' W 122°24'0 0.0
2014-Mar-18 22:31N 47°41' W 122°24'0 0.0
2014-Mar-18 21:31N 47°41' W 122°24'0 0.0
2014-Mar-18 20:31N 47°41' W 122°24'0 0.0
2014-Mar-18 19:31N 47°41' W 122°24'0 0.0
2014-Mar-18 18:31N 47°41' W 122°24'0 0.0
2014-Mar-18 17:31N 47°41' W 122°24'0 0.0
2014-Mar-18 16:31N 47°41' W 122°24'5 4.7
2014-Mar-18 15:33N 47°43' W 122°31'1 0.1
2014-Mar-18 03:29N 47°42' W 122°32'0 0.0
2014-Mar-17 19:29N 47°42' W 122°32'0 0.0
2014-Mar-17 10:06N 47°42' W 122°32'0 0.0
2014-Mar-17 09:27N 47°42' W 122°32'0 0.0
2014-Mar-17 07:30N 47°42' W 122°32'0 0.0
2014-Mar-17 06:30N 47°42' W 122°32'0 0.0
2014-Mar-16 18:08N 47°42' W 122°32'4 7.0
2014-Mar-16 17:33N 47°45' W 122°28'8 8.3
2014-Mar-16 16:33N 47°53' W 122°30'  
2014-Mar-13 22:32N 47°55' W 122°32'9 8.9
2014-Mar-13 21:34N 47°47' W 122°28'  

Dump ship's entire track history

sailing weather and tide predictions

Stornoway — WDC7908 — position and weather